sensor_id;sensor_type;location;lat;lon;timestamp;P1;durP1;ratioP1;P2;durP2;ratioP2
21233;SDS011;10774;42.178;26.578;2023-08-07T00:00:30;15.52;;;14.02;;
21233;SDS011;10774;42.178;26.578;2023-08-07T00:02:55;15.80;;;14.23;;
21233;SDS011;10774;42.178;26.578;2023-08-07T00:05:21;14.82;;;13.45;;
21233;SDS011;10774;42.178;26.578;2023-08-07T00:07:46;14.95;;;13.57;;
21233;SDS011;10774;42.178;26.578;2023-08-07T00:10:12;16.15;;;14.10;;
21233;SDS011;10774;42.178;26.578;2023-08-07T00:12:38;16.17;;;14.55;;
21233;SDS011;10774;42.178;26.578;2023-08-07T00:15:04;15.75;;;14.35;;
21233;SDS011;10774;42.178;26.578;2023-08-07T00:17:29;15.88;;;14.35;;
21233;SDS011;10774;42.178;26.578;2023-08-07T00:19:55;16.40;;;14.80;;
21233;SDS011;10774;42.178;26.578;2023-08-07T00:22:20;17.35;;;15.07;;
21233;SDS011;10774;42.178;26.578;2023-08-07T00:24:46;16.23;;;14.63;;
21233;SDS011;10774;42.178;26.578;2023-08-07T00:27:11;16.20;;;14.65;;
21233;SDS011;10774;42.178;26.578;2023-08-07T00:29:37;17.58;;;15.80;;
21233;SDS011;10774;42.178;26.578;2023-08-07T00:32:03;17.55;;;15.85;;
21233;SDS011;10774;42.178;26.578;2023-08-07T00:34:29;17.00;;;15.40;;
21233;SDS011;10774;42.178;26.578;2023-08-07T00:36:55;15.85;;;14.43;;
21233;SDS011;10774;42.178;26.578;2023-08-07T00:39:20;15.80;;;14.35;;
21233;SDS011;10774;42.178;26.578;2023-08-07T00:41:46;17.67;;;15.98;;
21233;SDS011;10774;42.178;26.578;2023-08-07T00:44:11;16.95;;;15.32;;
21233;SDS011;10774;42.178;26.578;2023-08-07T00:46:37;17.45;;;15.68;;
21233;SDS011;10774;42.178;26.578;2023-08-07T00:49:04;17.25;;;15.07;;
21233;SDS011;10774;42.178;26.578;2023-08-07T00:51:30;20.60;;;16.25;;
21233;SDS011;10774;42.178;26.578;2023-08-07T00:53:56;17.73;;;16.10;;
21233;SDS011;10774;42.178;26.578;2023-08-07T00:56:22;17.92;;;16.33;;
21233;SDS011;10774;42.178;26.578;2023-08-07T00:58:48;18.58;;;15.98;;
21233;SDS011;10774;42.178;26.578;2023-08-07T01:01:15;17.45;;;15.93;;
21233;SDS011;10774;42.178;26.578;2023-08-07T01:03:40;19.02;;;17.13;;
21233;SDS011;10774;42.178;26.578;2023-08-07T01:06:06;18.48;;;16.80;;
21233;SDS011;10774;42.178;26.578;2023-08-07T01:08:32;18.38;;;16.52;;
21233;SDS011;10774;42.178;26.578;2023-08-07T01:16:35;19.38;;;17.20;;
21233;SDS011;10774;42.178;26.578;2023-08-07T01:19:01;18.13;;;16.35;;
21233;SDS011;10774;42.178;26.578;2023-08-07T01:21:29;18.60;;;16.83;;
21233;SDS011;10774;42.178;26.578;2023-08-07T01:23:57;16.83;;;15.02;;
21233;SDS011;10774;42.178;26.578;2023-08-07T01:26:23;16.23;;;14.73;;
21233;SDS011;10774;42.178;26.578;2023-08-07T01:31:42;17.60;;;15.80;;
21233;SDS011;10774;42.178;26.578;2023-08-07T01:34:10;17.85;;;15.95;;
21233;SDS011;10774;42.178;26.578;2023-08-07T01:36:40;22.27;;;15.75;;
21233;SDS011;10774;42.178;26.578;2023-08-07T01:39:06;16.35;;;14.65;;
21233;SDS011;10774;42.178;26.578;2023-08-07T01:41:32;15.65;;;14.20;;
21233;SDS011;10774;42.178;26.578;2023-08-07T01:43:58;17.77;;;14.32;;
21233;SDS011;10774;42.178;26.578;2023-08-07T01:46:24;14.98;;;13.55;;
21233;SDS011;10774;42.178;26.578;2023-08-07T01:48:49;14.48;;;12.98;;
21233;SDS011;10774;42.178;26.578;2023-08-07T01:51:15;18.58;;;14.10;;
21233;SDS011;10774;42.178;26.578;2023-08-07T01:53:40;19.85;;;16.45;;
21233;SDS011;10774;42.178;26.578;2023-08-07T01:56:06;17.52;;;15.88;;
21233;SDS011;10774;42.178;26.578;2023-08-07T01:58:31;18.58;;;16.67;;
21233;SDS011;10774;42.178;26.578;2023-08-07T02:00:56;18.58;;;16.85;;
21233;SDS011;10774;42.178;26.578;2023-08-07T02:03:22;17.77;;;16.02;;
21233;SDS011;10774;42.178;26.578;2023-08-07T02:05:47;18.35;;;16.52;;
21233;SDS011;10774;42.178;26.578;2023-08-07T02:08:13;17.88;;;16.23;;
21233;SDS011;10774;42.178;26.578;2023-08-07T02:10:39;17.38;;;15.70;;
21233;SDS011;10774;42.178;26.578;2023-08-07T02:13:04;18.75;;;16.88;;
21233;SDS011;10774;42.178;26.578;2023-08-07T02:15:30;19.65;;;17.63;;
21233;SDS011;10774;42.178;26.578;2023-08-07T02:17:55;17.73;;;15.88;;
21233;SDS011;10774;42.178;26.578;2023-08-07T02:20:20;17.45;;;15.90;;
21233;SDS011;10774;42.178;26.578;2023-08-07T02:22:46;19.50;;;16.55;;
21233;SDS011;10774;42.178;26.578;2023-08-07T02:25:11;23.88;;;17.17;;
21233;SDS011;10774;42.178;26.578;2023-08-07T02:27:37;15.88;;;14.30;;
21233;SDS011;10774;42.178;26.578;2023-08-07T02:30:02;15.52;;;13.95;;
21233;SDS011;10774;42.178;26.578;2023-08-07T02:32:29;15.95;;;14.32;;
21233;SDS011;10774;42.178;26.578;2023-08-07T02:34:54;15.32;;;13.82;;
21233;SDS011;10774;42.178;26.578;2023-08-07T02:37:20;14.70;;;13.02;;
21233;SDS011;10774;42.178;26.578;2023-08-07T02:39:46;15.65;;;14.10;;
21233;SDS011;10774;42.178;26.578;2023-08-07T02:42:11;15.07;;;13.57;;
21233;SDS011;10774;42.178;26.578;2023-08-07T02:44:37;14.85;;;13.43;;
21233;SDS011;10774;42.178;26.578;2023-08-07T02:47:02;14.38;;;12.98;;
21233;SDS011;10774;42.178;26.578;2023-08-07T02:49:28;14.75;;;12.93;;
21233;SDS011;10774;42.178;26.578;2023-08-07T02:51:53;14.95;;;13.48;;
21233;SDS011;10774;42.178;26.578;2023-08-07T02:54:19;14.35;;;12.82;;
21233;SDS011;10774;42.178;26.578;2023-08-07T02:56:44;14.45;;;13.05;;
21233;SDS011;10774;42.178;26.578;2023-08-07T02:59:10;15.35;;;13.73;;
21233;SDS011;10774;42.178;26.578;2023-08-07T03:01:35;16.30;;;14.85;;
21233;SDS011;10774;42.178;26.578;2023-08-07T03:04:00;17.05;;;15.43;;
21233;SDS011;10774;42.178;26.578;2023-08-07T03:06:26;17.60;;;16.00;;
21233;SDS011;10774;42.178;26.578;2023-08-07T03:08:51;16.17;;;14.73;;
21233;SDS011;10774;42.178;26.578;2023-08-07T03:11:17;15.90;;;14.50;;
21233;SDS011;10774;42.178;26.578;2023-08-07T03:13:42;16.05;;;14.35;;
21233;SDS011;10774;42.178;26.578;2023-08-07T03:16:09;15.95;;;14.48;;
21233;SDS011;10774;42.178;26.578;2023-08-07T03:18:34;15.27;;;13.88;;
21233;SDS011;10774;42.178;26.578;2023-08-07T03:21:00;15.65;;;14.05;;
21233;SDS011;10774;42.178;26.578;2023-08-07T03:23:27;16.35;;;14.70;;
21233;SDS011;10774;42.178;26.578;2023-08-07T03:26:06;15.82;;;14.38;;
21233;SDS011;10774;42.178;26.578;2023-08-07T03:28:36;15.85;;;14.40;;
21233;SDS011;10774;42.178;26.578;2023-08-07T03:31:02;15.52;;;13.90;;
21233;SDS011;10774;42.178;26.578;2023-08-07T03:33:27;16.02;;;14.50;;
21233;SDS011;10774;42.178;26.578;2023-08-07T03:35:53;15.75;;;14.02;;
21233;SDS011;10774;42.178;26.578;2023-08-07T03:38:19;14.77;;;13.32;;
21233;SDS011;10774;42.178;26.578;2023-08-07T03:40:44;13.90;;;12.60;;
21233;SDS011;10774;42.178;26.578;2023-08-07T03:43:10;14.50;;;13.00;;
21233;SDS011;10774;42.178;26.578;2023-08-07T03:45:35;15.75;;;14.15;;
21233;SDS011;10774;42.178;26.578;2023-08-07T03:48:01;14.93;;;13.40;;
21233;SDS011;10774;42.178;26.578;2023-08-07T03:50:26;16.10;;;14.43;;
21233;SDS011;10774;42.178;26.578;2023-08-07T03:52:52;14.70;;;13.20;;
21233;SDS011;10774;42.178;26.578;2023-08-07T03:55:17;14.85;;;13.45;;
21233;SDS011;10774;42.178;26.578;2023-08-07T03:57:43;15.05;;;13.45;;
21233;SDS011;10774;42.178;26.578;2023-08-07T04:00:09;14.93;;;12.80;;
21233;SDS011;10774;42.178;26.578;2023-08-07T04:02:34;13.52;;;10.30;;
21233;SDS011;10774;42.178;26.578;2023-08-07T04:05:00;11.15;;;10.05;;
21233;SDS011;10774;42.178;26.578;2023-08-07T04:07:25;12.30;;;9.88;;
21233;SDS011;10774;42.178;26.578;2023-08-07T04:09:51;11.88;;;10.25;;
21233;SDS011;10774;42.178;26.578;2023-08-07T04:12:16;13.98;;;10.60;;
21233;SDS011;10774;42.178;26.578;2023-08-07T04:14:41;10.68;;;9.55;;
21233;SDS011;10774;42.178;26.578;2023-08-07T04:17:07;11.65;;;9.68;;
21233;SDS011;10774;42.178;26.578;2023-08-07T04:19:32;12.80;;;9.23;;
21233;SDS011;10774;42.178;26.578;2023-08-07T04:21:58;13.93;;;9.85;;
21233;SDS011;10774;42.178;26.578;2023-08-07T04:24:24;13.82;;;8.80;;
21233;SDS011;10774;42.178;26.578;2023-08-07T04:26:49;10.95;;;9.02;;
21233;SDS011;10774;42.178;26.578;2023-08-07T04:29:15;12.10;;;9.65;;
21233;SDS011;10774;42.178;26.578;2023-08-07T04:31:40;10.32;;;9.38;;
21233;SDS011;10774;42.178;26.578;2023-08-07T04:34:06;9.90;;;8.82;;
21233;SDS011;10774;42.178;26.578;2023-08-07T04:36:31;9.15;;;8.18;;
21233;SDS011;10774;42.178;26.578;2023-08-07T04:38:56;9.48;;;7.10;;
21233;SDS011;10774;42.178;26.578;2023-08-07T04:41:22;8.05;;;7.35;;
21233;SDS011;10774;42.178;26.578;2023-08-07T04:43:47;8.63;;;7.90;;
21233;SDS011;10774;42.178;26.578;2023-08-07T04:46:13;11.32;;;7.13;;
21233;SDS011;10774;42.178;26.578;2023-08-07T04:48:39;7.60;;;6.72;;
21233;SDS011;10774;42.178;26.578;2023-08-07T04:51:05;10.85;;;7.30;;
21233;SDS011;10774;42.178;26.578;2023-08-07T04:53:31;7.88;;;6.40;;
21233;SDS011;10774;42.178;26.578;2023-08-07T04:55:56;11.60;;;7.35;;
21233;SDS011;10774;42.178;26.578;2023-08-07T04:58:22;8.95;;;7.28;;
21233;SDS011;10774;42.178;26.578;2023-08-07T05:00:47;9.20;;;6.50;;
21233;SDS011;10774;42.178;26.578;2023-08-07T05:03:12;9.32;;;7.15;;
21233;SDS011;10774;42.178;26.578;2023-08-07T05:05:40;11.38;;;6.57;;
21233;SDS011;10774;42.178;26.578;2023-08-07T05:08:05;9.82;;;6.43;;
21233;SDS011;10774;42.178;26.578;2023-08-07T05:10:31;10.60;;;6.68;;
21233;SDS011;10774;42.178;26.578;2023-08-07T05:12:56;9.82;;;6.18;;
21233;SDS011;10774;42.178;26.578;2023-08-07T05:15:25;7.40;;;5.10;;
21233;SDS011;10774;42.178;26.578;2023-08-07T05:17:51;5.50;;;4.30;;
21233;SDS011;10774;42.178;26.578;2023-08-07T05:20:17;6.93;;;4.65;;
21233;SDS011;10774;42.178;26.578;2023-08-07T05:22:43;7.10;;;4.63;;
21233;SDS011;10774;42.178;26.578;2023-08-07T05:25:08;6.00;;;4.00;;
21233;SDS011;10774;42.178;26.578;2023-08-07T05:27:34;10.00;;;3.80;;
21233;SDS011;10774;42.178;26.578;2023-08-07T05:30:00;5.65;;;3.58;;
21233;SDS011;10774;42.178;26.578;2023-08-07T05:32:26;7.45;;;4.00;;
21233;SDS011;10774;42.178;26.578;2023-08-07T05:34:52;4.82;;;3.40;;
21233;SDS011;10774;42.178;26.578;2023-08-07T05:37:17;4.35;;;3.53;;
21233;SDS011;10774;42.178;26.578;2023-08-07T05:39:42;13.40;;;3.72;;
21233;SDS011;10774;42.178;26.578;2023-08-07T05:42:08;8.15;;;3.47;;
21233;SDS011;10774;42.178;26.578;2023-08-07T05:44:35;5.47;;;2.78;;
21233;SDS011;10774;42.178;26.578;2023-08-07T05:47:01;6.05;;;2.88;;
21233;SDS011;10774;42.178;26.578;2023-08-07T05:49:26;6.90;;;3.50;;
21233;SDS011;10774;42.178;26.578;2023-08-07T05:51:52;7.03;;;3.08;;
21233;SDS011;10774;42.178;26.578;2023-08-07T05:54:18;8.35;;;3.28;;
21233;SDS011;10774;42.178;26.578;2023-08-07T05:56:43;4.53;;;3.28;;
21233;SDS011;10774;42.178;26.578;2023-08-07T05:59:09;4.82;;;3.47;;
21233;SDS011;10774;42.178;26.578;2023-08-07T06:01:34;4.07;;;3.10;;
21233;SDS011;10774;42.178;26.578;2023-08-07T06:04:02;7.93;;;2.95;;
21233;SDS011;10774;42.178;26.578;2023-08-07T06:06:27;7.50;;;3.20;;
21233;SDS011;10774;42.178;26.578;2023-08-07T06:08:56;5.05;;;2.95;;
21233;SDS011;10774;42.178;26.578;2023-08-07T06:11:21;3.55;;;3.25;;
21233;SDS011;10774;42.178;26.578;2023-08-07T06:13:46;4.97;;;3.00;;
21233;SDS011;10774;42.178;26.578;2023-08-07T06:16:12;4.57;;;2.70;;
21233;SDS011;10774;42.178;26.578;2023-08-07T06:18:37;14.20;;;3.20;;
21233;SDS011;10774;42.178;26.578;2023-08-07T06:21:03;5.03;;;3.03;;
21233;SDS011;10774;42.178;26.578;2023-08-07T06:23:31;3.45;;;2.63;;
21233;SDS011;10774;42.178;26.578;2023-08-07T06:25:57;3.40;;;2.60;;
21233;SDS011;10774;42.178;26.578;2023-08-07T06:28:23;4.25;;;2.53;;
21233;SDS011;10774;42.178;26.578;2023-08-07T06:30:48;6.05;;;3.50;;
21233;SDS011;10774;42.178;26.578;2023-08-07T06:33:13;4.75;;;3.22;;
21233;SDS011;10774;42.178;26.578;2023-08-07T06:35:39;5.82;;;3.15;;
21233;SDS011;10774;42.178;26.578;2023-08-07T06:38:05;6.63;;;3.15;;
21233;SDS011;10774;42.178;26.578;2023-08-07T06:40:31;4.00;;;2.70;;
21233;SDS011;10774;42.178;26.578;2023-08-07T06:42:56;3.92;;;2.63;;
21233;SDS011;10774;42.178;26.578;2023-08-07T06:45:22;4.68;;;2.70;;
21233;SDS011;10774;42.178;26.578;2023-08-07T06:47:47;5.40;;;3.17;;
21233;SDS011;10774;42.178;26.578;2023-08-07T06:50:13;7.35;;;2.80;;
21233;SDS011;10774;42.178;26.578;2023-08-07T06:52:38;3.10;;;2.40;;
21233;SDS011;10774;42.178;26.578;2023-08-07T06:55:05;3.28;;;2.08;;
21233;SDS011;10774;42.178;26.578;2023-08-07T06:57:31;4.85;;;2.22;;
21233;SDS011;10774;42.178;26.578;2023-08-07T06:59:56;2.03;;;1.83;;
21233;SDS011;10774;42.178;26.578;2023-08-07T07:02:21;5.05;;;2.55;;
21233;SDS011;10774;42.178;26.578;2023-08-07T07:04:47;5.97;;;2.08;;
21233;SDS011;10774;42.178;26.578;2023-08-07T07:07:12;5.30;;;2.42;;
21233;SDS011;10774;42.178;26.578;2023-08-07T07:09:38;3.47;;;2.30;;
21233;SDS011;10774;42.178;26.578;2023-08-07T07:12:03;3.03;;;2.28;;
21233;SDS011;10774;42.178;26.578;2023-08-07T07:14:29;3.45;;;2.00;;
21233;SDS011;10774;42.178;26.578;2023-08-07T07:16:54;2.80;;;2.20;;
21233;SDS011;10774;42.178;26.578;2023-08-07T07:19:20;3.15;;;2.10;;
21233;SDS011;10774;42.178;26.578;2023-08-07T07:21:45;4.65;;;2.72;;
21233;SDS011;10774;42.178;26.578;2023-08-07T07:24:11;4.07;;;2.50;;
21233;SDS011;10774;42.178;26.578;2023-08-07T07:26:36;2.85;;;2.40;;
21233;SDS011;10774;42.178;26.578;2023-08-07T07:29:01;1.90;;;1.70;;
21233;SDS011;10774;42.178;26.578;2023-08-07T07:31:27;3.13;;;1.83;;
21233;SDS011;10774;42.178;26.578;2023-08-07T07:33:53;2.10;;;1.70;;
21233;SDS011;10774;42.178;26.578;2023-08-07T07:36:18;2.13;;;1.92;;
21233;SDS011;10774;42.178;26.578;2023-08-07T07:38:45;2.47;;;1.83;;
21233;SDS011;10774;42.178;26.578;2023-08-07T07:41:11;4.53;;;2.30;;
21233;SDS011;10774;42.178;26.578;2023-08-07T07:43:37;2.35;;;2.15;;
21233;SDS011;10774;42.178;26.578;2023-08-07T07:46:03;5.03;;;3.03;;
21233;SDS011;10774;42.178;26.578;2023-08-07T07:48:29;2.83;;;2.38;;
21233;SDS011;10774;42.178;26.578;2023-08-07T07:51:03;8.95;;;2.10;;
21233;SDS011;10774;42.178;26.578;2023-08-07T07:53:29;3.58;;;2.20;;
21233;SDS011;10774;42.178;26.578;2023-08-07T07:55:55;2.92;;;1.80;;
21233;SDS011;10774;42.178;26.578;2023-08-07T07:58:20;2.20;;;1.85;;
21233;SDS011;10774;42.178;26.578;2023-08-07T08:00:46;5.15;;;2.00;;
21233;SDS011;10774;42.178;26.578;2023-08-07T08:03:12;1.63;;;1.52;;
21233;SDS011;10774;42.178;26.578;2023-08-07T08:05:38;2.58;;;1.60;;
21233;SDS011;10774;42.178;26.578;2023-08-07T08:08:04;2.35;;;1.95;;
21233;SDS011;10774;42.178;26.578;2023-08-07T08:10:31;6.60;;;1.63;;
21233;SDS011;10774;42.178;26.578;2023-08-07T08:12:57;1.45;;;1.35;;
21233;SDS011;10774;42.178;26.578;2023-08-07T08:15:22;1.48;;;1.38;;
21233;SDS011;10774;42.178;26.578;2023-08-07T08:17:48;1.27;;;1.17;;
21233;SDS011;10774;42.178;26.578;2023-08-07T08:20:14;1.77;;;1.23;;
21233;SDS011;10774;42.178;26.578;2023-08-07T08:22:46;1.25;;;1.15;;
21233;SDS011;10774;42.178;26.578;2023-08-07T08:25:12;2.65;;;1.50;;
21233;SDS011;10774;42.178;26.578;2023-08-07T08:27:38;2.33;;;1.30;;
21233;SDS011;10774;42.178;26.578;2023-08-07T08:30:06;1.65;;;1.23;;
21233;SDS011;10774;42.178;26.578;2023-08-07T08:32:33;1.30;;;1.13;;
21233;SDS011;10774;42.178;26.578;2023-08-07T08:34:59;2.05;;;1.20;;
21233;SDS011;10774;42.178;26.578;2023-08-07T08:37:25;4.70;;;1.20;;
21233;SDS011;10774;42.178;26.578;2023-08-07T08:39:50;1.77;;;1.23;;
21233;SDS011;10774;42.178;26.578;2023-08-07T08:42:16;2.00;;;1.30;;
21233;SDS011;10774;42.178;26.578;2023-08-07T08:44:54;7.97;;;1.67;;
21233;SDS011;10774;42.178;26.578;2023-08-07T08:47:21;2.70;;;1.70;;
21233;SDS011;10774;42.178;26.578;2023-08-07T08:49:48;1.75;;;1.40;;
21233;SDS011;10774;42.178;26.578;2023-08-07T08:52:16;1.70;;;1.00;;
21233;SDS011;10774;42.178;26.578;2023-08-07T08:54:42;1.20;;;1.10;;
21233;SDS011;10774;42.178;26.578;2023-08-07T08:57:09;1.85;;;1.30;;
21233;SDS011;10774;42.178;26.578;2023-08-07T08:59:37;2.92;;;1.27;;
21233;SDS011;10774;42.178;26.578;2023-08-07T09:02:03;1.85;;;1.10;;
21233;SDS011;10774;42.178;26.578;2023-08-07T09:04:29;1.92;;;1.38;;
21233;SDS011;10774;42.178;26.578;2023-08-07T09:06:55;1.55;;;1.23;;
21233;SDS011;10774;42.178;26.578;2023-08-07T09:09:20;1.42;;;1.10;;
21233;SDS011;10774;42.178;26.578;2023-08-07T09:11:47;2.15;;;0.90;;
21233;SDS011;10774;42.178;26.578;2023-08-07T09:14:17;2.65;;;1.25;;
21233;SDS011;10774;42.178;26.578;2023-08-07T09:16:47;0.82;;;0.82;;
21233;SDS011;10774;42.178;26.578;2023-08-07T09:19:13;1.23;;;1.13;;
21233;SDS011;10774;42.178;26.578;2023-08-07T09:21:39;5.22;;;3.08;;
21233;SDS011;10774;42.178;26.578;2023-08-07T09:24:05;3.80;;;2.80;;
21233;SDS011;10774;42.178;26.578;2023-08-07T09:26:31;1.98;;;1.08;;
21233;SDS011;10774;42.178;26.578;2023-08-07T09:28:58;1.15;;;1.05;;
21233;SDS011;10774;42.178;26.578;2023-08-07T09:31:24;1.25;;;1.15;;
21233;SDS011;10774;42.178;26.578;2023-08-07T09:33:58;3.78;;;1.98;;
21233;SDS011;10774;42.178;26.578;2023-08-07T09:36:29;34.97;;;21.85;;
21233;SDS011;10774;42.178;26.578;2023-08-07T09:38:55;3.13;;;1.40;;
21233;SDS011;10774;42.178;26.578;2023-08-07T09:41:20;2.38;;;1.50;;
21233;SDS011;10774;42.178;26.578;2023-08-07T09:43:46;3.10;;;1.10;;
21233;SDS011;10774;42.178;26.578;2023-08-07T09:46:12;1.02;;;0.93;;
21233;SDS011;10774;42.178;26.578;2023-08-07T09:48:41;2.25;;;0.85;;
21233;SDS011;10774;42.178;26.578;2023-08-07T09:51:08;1.10;;;0.63;;
21233;SDS011;10774;42.178;26.578;2023-08-07T09:53:34;2.15;;;0.75;;
21233;SDS011;10774;42.178;26.578;2023-08-07T09:56:00;4.30;;;1.00;;
21233;SDS011;10774;42.178;26.578;2023-08-07T09:58:26;2.10;;;0.90;;
21233;SDS011;10774;42.178;26.578;2023-08-07T10:00:53;0.80;;;0.70;;
21233;SDS011;10774;42.178;26.578;2023-08-07T10:03:21;0.65;;;0.55;;
21233;SDS011;10774;42.178;26.578;2023-08-07T10:05:48;1.55;;;1.45;;
21233;SDS011;10774;42.178;26.578;2023-08-07T10:08:13;3.38;;;3.08;;
21233;SDS011;10774;42.178;26.578;2023-08-07T10:10:40;2.05;;;0.65;;
21233;SDS011;10774;42.178;26.578;2023-08-07T10:13:06;0.77;;;0.73;;
21233;SDS011;10774;42.178;26.578;2023-08-07T10:15:32;2.90;;;0.70;;
21233;SDS011;10774;42.178;26.578;2023-08-07T10:17:59;0.90;;;0.40;;
21233;SDS011;10774;42.178;26.578;2023-08-07T10:20:26;0.65;;;0.50;;
21233;SDS011;10774;42.178;26.578;2023-08-07T10:22:53;1.75;;;0.55;;
21233;SDS011;10774;42.178;26.578;2023-08-07T10:25:25;1.23;;;0.60;;
21233;SDS011;10774;42.178;26.578;2023-08-07T10:27:53;0.90;;;0.60;;
21233;SDS011;10774;42.178;26.578;2023-08-07T10:30:20;0.88;;;0.60;;
21233;SDS011;10774;42.178;26.578;2023-08-07T10:32:47;1.38;;;1.23;;
21233;SDS011;10774;42.178;26.578;2023-08-07T10:38:07;1.17;;;0.75;;
21233;SDS011;10774;42.178;26.578;2023-08-07T10:40:33;0.88;;;0.60;;
21233;SDS011;10774;42.178;26.578;2023-08-07T10:45:44;1.35;;;0.60;;
21233;SDS011;10774;42.178;26.578;2023-08-07T10:48:13;1.63;;;0.70;;
21233;SDS011;10774;42.178;26.578;2023-08-07T10:53:29;3.58;;;0.50;;
21233;SDS011;10774;42.178;26.578;2023-08-07T10:56:30;1.20;;;0.57;;
21233;SDS011;10774;42.178;26.578;2023-08-07T11:04:08;3.88;;;2.78;;
21233;SDS011;10774;42.178;26.578;2023-08-07T11:06:38;1.02;;;0.60;;
21233;SDS011;10774;42.178;26.578;2023-08-07T11:09:05;1.20;;;0.75;;
21233;SDS011;10774;42.178;26.578;2023-08-07T11:14:12;0.60;;;0.60;;
21233;SDS011;10774;42.178;26.578;2023-08-07T11:16:42;2.15;;;0.70;;
21233;SDS011;10774;42.178;26.578;2023-08-07T11:19:08;0.90;;;0.50;;
21233;SDS011;10774;42.178;26.578;2023-08-07T11:21:34;0.80;;;0.60;;
21233;SDS011;10774;42.178;26.578;2023-08-07T11:24:00;1.13;;;0.60;;
21233;SDS011;10774;42.178;26.578;2023-08-07T11:26:26;1.35;;;0.65;;
21233;SDS011;10774;42.178;26.578;2023-08-07T11:28:53;3.78;;;0.60;;
21233;SDS011;10774;42.178;26.578;2023-08-07T11:31:19;2.50;;;0.50;;
21233;SDS011;10774;42.178;26.578;2023-08-07T11:33:44;0.40;;;0.30;;
21233;SDS011;10774;42.178;26.578;2023-08-07T11:36:13;0.60;;;0.50;;
21233;SDS011;10774;42.178;26.578;2023-08-07T11:38:42;0.98;;;0.43;;
21233;SDS011;10774;42.178;26.578;2023-08-07T11:41:09;0.63;;;0.30;;
21233;SDS011;10774;42.178;26.578;2023-08-07T11:43:36;1.30;;;0.50;;
21233;SDS011;10774;42.178;26.578;2023-08-07T11:46:05;1.80;;;0.40;;
21233;SDS011;10774;42.178;26.578;2023-08-07T11:48:34;2.33;;;0.57;;
21233;SDS011;10774;42.178;26.578;2023-08-07T11:51:02;0.70;;;0.70;;
21233;SDS011;10774;42.178;26.578;2023-08-07T11:53:29;3.35;;;2.80;;
21233;SDS011;10774;42.178;26.578;2023-08-07T11:56:09;3.38;;;1.10;;
21233;SDS011;10774;42.178;26.578;2023-08-07T11:58:39;0.80;;;0.65;;
21233;SDS011;10774;42.178;26.578;2023-08-07T12:01:09;0.95;;;0.60;;
21233;SDS011;10774;42.178;26.578;2023-08-07T12:03:36;1.55;;;0.60;;
21233;SDS011;10774;42.178;26.578;2023-08-07T12:06:04;2.72;;;0.60;;
21233;SDS011;10774;42.178;26.578;2023-08-07T12:08:31;0.52;;;0.45;;
21233;SDS011;10774;42.178;26.578;2023-08-07T12:11:00;0.80;;;0.47;;
21233;SDS011;10774;42.178;26.578;2023-08-07T12:13:27;0.45;;;0.45;;
21233;SDS011;10774;42.178;26.578;2023-08-07T12:15:56;0.90;;;0.40;;
21233;SDS011;10774;42.178;26.578;2023-08-07T12:18:22;0.68;;;0.60;;
21233;SDS011;10774;42.178;26.578;2023-08-07T12:20:49;0.70;;;0.40;;
21233;SDS011;10774;42.178;26.578;2023-08-07T12:23:16;0.50;;;0.50;;
21233;SDS011;10774;42.178;26.578;2023-08-07T12:25:42;1.33;;;1.00;;
21233;SDS011;10774;42.178;26.578;2023-08-07T12:28:08;1.65;;;0.63;;
21233;SDS011;10774;42.178;26.578;2023-08-07T12:30:34;0.60;;;0.55;;
21233;SDS011;10774;42.178;26.578;2023-08-07T12:33:00;0.70;;;0.50;;
21233;SDS011;10774;42.178;26.578;2023-08-07T12:35:27;1.85;;;0.50;;
21233;SDS011;10774;42.178;26.578;2023-08-07T12:37:53;0.60;;;0.45;;
21233;SDS011;10774;42.178;26.578;2023-08-07T12:40:18;1.65;;;0.63;;
21233;SDS011;10774;42.178;26.578;2023-08-07T12:42:46;1.83;;;0.57;;
21233;SDS011;10774;42.178;26.578;2023-08-07T12:45:11;0.73;;;0.43;;
21233;SDS011;10774;42.178;26.578;2023-08-07T12:47:37;2.53;;;0.95;;
21233;SDS011;10774;42.178;26.578;2023-08-07T12:50:02;5.75;;;1.05;;
21233;SDS011;10774;42.178;26.578;2023-08-07T12:52:28;2.33;;;0.60;;
21233;SDS011;10774;42.178;26.578;2023-08-07T12:54:54;6.45;;;1.40;;
21233;SDS011;10774;42.178;26.578;2023-08-07T12:57:20;3.28;;;0.60;;
21233;SDS011;10774;42.178;26.578;2023-08-07T12:59:45;1.35;;;0.85;;
21233;SDS011;10774;42.178;26.578;2023-08-07T13:02:11;2.15;;;0.55;;
21233;SDS011;10774;42.178;26.578;2023-08-07T13:04:36;1.00;;;0.60;;
21233;SDS011;10774;42.178;26.578;2023-08-07T13:07:02;1.98;;;0.45;;
21233;SDS011;10774;42.178;26.578;2023-08-07T13:09:27;1.52;;;0.60;;
21233;SDS011;10774;42.178;26.578;2023-08-07T13:11:53;3.30;;;0.73;;
21233;SDS011;10774;42.178;26.578;2023-08-07T13:14:18;2.42;;;0.60;;
21233;SDS011;10774;42.178;26.578;2023-08-07T13:16:43;3.13;;;0.60;;
21233;SDS011;10774;42.178;26.578;2023-08-07T13:19:09;2.42;;;1.40;;
21233;SDS011;10774;42.178;26.578;2023-08-07T13:21:34;0.43;;;0.43;;
21233;SDS011;10774;42.178;26.578;2023-08-07T13:24:00;1.83;;;0.50;;
21233;SDS011;10774;42.178;26.578;2023-08-07T13:26:25;3.50;;;1.38;;
21233;SDS011;10774;42.178;26.578;2023-08-07T13:28:50;1.58;;;0.60;;
21233;SDS011;10774;42.178;26.578;2023-08-07T13:31:16;0.70;;;0.63;;
21233;SDS011;10774;42.178;26.578;2023-08-07T13:33:41;2.45;;;0.57;;
21233;SDS011;10774;42.178;26.578;2023-08-07T13:36:07;1.25;;;0.50;;
21233;SDS011;10774;42.178;26.578;2023-08-07T13:38:32;1.50;;;0.70;;
21233;SDS011;10774;42.178;26.578;2023-08-07T13:40:58;2.22;;;0.60;;
21233;SDS011;10774;42.178;26.578;2023-08-07T13:43:25;0.60;;;0.45;;
21233;SDS011;10774;42.178;26.578;2023-08-07T13:45:50;0.80;;;0.60;;
21233;SDS011;10774;42.178;26.578;2023-08-07T13:48:16;1.90;;;0.70;;
21233;SDS011;10774;42.178;26.578;2023-08-07T13:50:42;1.02;;;0.70;;
21233;SDS011;10774;42.178;26.578;2023-08-07T13:53:08;2.90;;;0.60;;
21233;SDS011;10774;42.178;26.578;2023-08-07T13:55:34;1.52;;;0.70;;
21233;SDS011;10774;42.178;26.578;2023-08-07T13:57:59;1.63;;;0.50;;
21233;SDS011;10774;42.178;26.578;2023-08-07T14:00:25;0.93;;;0.45;;
21233;SDS011;10774;42.178;26.578;2023-08-07T14:02:51;2.00;;;1.77;;
21233;SDS011;10774;42.178;26.578;2023-08-07T14:05:16;1.33;;;0.65;;
21233;SDS011;10774;42.178;26.578;2023-08-07T14:07:41;2.35;;;0.82;;
21233;SDS011;10774;42.178;26.578;2023-08-07T14:10:07;0.82;;;0.60;;
21233;SDS011;10774;42.178;26.578;2023-08-07T14:12:33;0.50;;;0.50;;
21233;SDS011;10774;42.178;26.578;2023-08-07T14:14:58;0.68;;;0.50;;
21233;SDS011;10774;42.178;26.578;2023-08-07T14:17:23;2.17;;;0.55;;
21233;SDS011;10774;42.178;26.578;2023-08-07T14:19:49;2.17;;;0.60;;
21233;SDS011;10774;42.178;26.578;2023-08-07T14:22:18;1.33;;;0.43;;
21233;SDS011;10774;42.178;26.578;2023-08-07T14:24:45;3.65;;;0.60;;
21233;SDS011;10774;42.178;26.578;2023-08-07T14:27:11;3.85;;;0.55;;
21233;SDS011;10774;42.178;26.578;2023-08-07T14:29:40;3.72;;;0.60;;
21233;SDS011;10774;42.178;26.578;2023-08-07T14:32:07;2.00;;;0.65;;
21233;SDS011;10774;42.178;26.578;2023-08-07T14:34:39;4.32;;;0.95;;
21233;SDS011;10774;42.178;26.578;2023-08-07T14:37:05;3.33;;;0.80;;
21233;SDS011;10774;42.178;26.578;2023-08-07T14:39:32;5.80;;;0.70;;
21233;SDS011;10774;42.178;26.578;2023-08-07T14:42:07;21.65;;;19.70;;
21233;SDS011;10774;42.178;26.578;2023-08-07T14:44:33;3.97;;;2.05;;